CheckWX is a tool to help pilots better visualize weather data.  It is not intended as a substitute for an official pre-flight weather briefing.

18:25:25 UTC

KHFJ METAR
Monett Regional Airport
Monett, Missouri, USA
Current

30 mins ago

KHFJ 161755Z AUTO 12006KT 10SM OVC041 08/01 A3006 RMK AO2
Observed
Feb-16 @ 17:55 UTC
Wind
  • 120° at 6 KTS
Visibility
10 SM
Flight Rules
VFR
Cloud Levels
  • Overcast at 4,100' AGL
Temperature
C / 46°F
Dewpoint
C / 34°F
Humidity
62%
Altimeter
30.06" Hg
Pressure
1017.92 hPa
Previous

50 mins ago

KHFJ 161735Z AUTO 13007KT 10SM OVC041 08/01 A3007 RMK AO2
Observed
Feb-16 @ 17:35 UTC
Wind
  • 130° at 7 KTS
Visibility
10 SM
Flight Rules
VFR
Cloud Levels
  • Overcast at 4,100' AGL
Temperature
C / 46°F
Dewpoint
C / 34°F
Humidity
62%
Altimeter
30.07" Hg
Pressure
1018.32 hPa
Previous

1 hour ago

KHFJ 161715Z AUTO 12006KT 10SM BKN041 08/01 A3008 RMK AO2
Observed
Feb-16 @ 17:15 UTC
Wind
  • 120° at 6 KTS
Visibility
10 SM
Flight Rules
VFR
Cloud Levels
  • Broken at 4,100' AGL
Temperature
C / 46°F
Dewpoint
C / 34°F
Humidity
62%
Altimeter
30.08" Hg
Pressure
1018.62 hPa